Christian Sabionski

Kontakt

Geschäftsführer

Adresse:
Meisenweg 8
D-85232 Feldgeding

Telefon: +49 (0)172 8140311

Kontaktformular

Eine E-Mail senden. Alle mit * markierten Felder werden benötigt.

Flugwetter Augsburg

[source: ADDS]
METAR
EDMA 192220Z AUTO 26007KT 9999 // FEW130/// BKN150/// 13/11 Q1003 =
TAF EDMA 191700Z 1918/2003 29005KT CAVOK PROB30 TEMPO 1918/1921 TSRA BKN030CB BECMG 2000/2003 BKN008
TAF
TAF EDMA 191700Z 1918/2003 29005KT CAVOK PROB30 TEMPO 1918/1921 TSRA BKN030CB BECMG 2000/2003 BKN008 =
Cookies erleichtern die Bereitstellung unserer Dienste. Mit der Nutzung unserer Dienste erklären Sie sich damit einverstanden, dass wir Cookies verwenden.
Weitere Informationen Ok